Language selection

Features

My Weather Profile Weather Topics  | 

Queen Charlotte Sound - eastern half: Past 24 Hour Conditions

 

East Dellwood - 46207

04:00 AM PST 22 November 2019Buoy position: 50.88N 129.93W
Disclaimer

This table is a summary of hourly weather conditions for the past 24 hours.
Please note that these observations might not always be representative of weather conditions over their associated marine area.

Date / Time
(PST)
Wind(knots) Wave height(m) Wave period(s) Pressure(kPa) Air tempC) Water tempC)
22 November 2019
4:00 S 17 gust 22 4.2 16.0 101.8 11 11
3:00 S 17 gust 22 4.4 15.0 101.8 12 12
2:00 S 16 gust 19 4.3 16.0 101.9 12 12
1:00 S 16 gust 17 4.3 17.0 101.8 12 11
0:00 S 16 gust 17 4.7 17.0 101.8 11 11
21 November 2019
23:00 S 13 gust 16 4.5 10.0 101.8 11 11
22:00 SSW 12 gust 16 4.6 11.0 101.8 11 11
21:00 SSW 12 gust 16 4.5 12.0 101.7 11 11
20:00 WSW 16 gust 19 4.5 12.0 101.6 11 11
19:00 WSW 13 gust 19 4.6 12.0 101.6 11 11
18:00 WSW 16 gust 22 4.1 12.0 101.5 11 12
17:00 WSW 16 gust 19 4.5 11.0 101.4 11 12
16:00 WSW 17 gust 22 4.3 12.0 101.4 11 12
15:00 WSW 16 gust 19 3.7 12.0 101.3 12 12
14:00 SW 16 gust 19 3.5 12.0 101.3 11 12
13:00 SW 17 gust 23 3.2 12.0 101.2 11 12
12:00 SW 17 gust 19 3.2 12.0 101.2 11 12
11:00 SW 16 gust 19 3.1 13.0 101.1 11 12
10:00 SSE 23 gust 27 3.1 12.0 101.0 11 12
9:00 SSE 23 gust 29 3.0 14.0 101.0 10 12
8:00 SSE 22 gust 25 2.8 12.0 101.0 12 12
7:00 SSE 22 gust 25 2.5 14.0 101.0 12 11
6:00 SSE 22 gust 25 2.9 13.0 101.1 11 11
5:00 SSE 17 gust 23 2.7 12.0 101.2 11 11
4:00 SSE 17 gust 22 2.5 14.0 101.2 11 11

Zoom-in to make a selection

Map of Pacific - North Coast marine weather areas Middle Nomad - 46004 South Nomad - 46036 Dixon Entrance Central - 46145 South Moresby - 46147 Nanakwa Shoal - 46181 North Hecate Strait - 46183 North Nomad - 46184 South Hecate Strait - 46185 West Sea Otter - 46204 West Dixon Entrance - 46205 East Dellwood - 46207 West Moresby - 46208 Sartine Island Cape St.James Kindakun Rocks Langara Island Masset Municipal Airport Rose Spit Sandspit Airport Bella Bella Airport Bella Coola Airport Bonilla Island Cathedral Point Cumshewa Island Grey Islet Holland Rock Lucy Islands Lightstation Prince Rupert Airport
Legend:
buoy Buoy
land station Land Station

Pacific - North Coast Area

Another Region

What we are doing

Date modified: